createdAt,value
2022-10-08T00:00:25.068Z,88.78
2022-10-08T00:01:25.122Z,88.88
2022-10-08T00:02:25.044Z,88.88
2022-10-08T00:03:25.043Z,88.98
2022-10-08T00:04:25.124Z,88.98
2022-10-08T00:05:25.009Z,88.98
2022-10-08T00:06:25.013Z,88.98
2022-10-08T00:07:25.013Z,88.98
2022-10-08T00:08:24.986Z,89.09
2022-10-08T00:09:24.984Z,89.09
2022-10-08T00:10:25.034Z,89.09
2022-10-08T00:11:24.955Z,89.18
2022-10-08T00:12:24.931Z,89.18
2022-10-08T00:13:24.926Z,89.29
2022-10-08T00:14:24.982Z,89.29
2022-10-08T00:15:24.917Z,89.29
2022-10-08T00:16:24.963Z,89.39
2022-10-08T00:17:24.898Z,89.39
2022-10-08T00:18:24.928Z,89.50
2022-10-08T00:19:24.863Z,89.59
2022-10-08T00:20:24.862Z,89.59
2022-10-08T00:21:24.851Z,89.70
2022-10-08T00:22:24.831Z,89.80
2022-10-08T00:23:24.818Z,89.80
2022-10-08T00:24:24.804Z,89.80
2022-10-08T00:25:24.808Z,89.80
2022-10-08T00:26:24.815Z,89.90
2022-10-08T00:27:24.794Z,89.90
2022-10-08T00:28:24.812Z,89.90
2022-10-08T00:29:24.789Z,90.00
2022-10-08T00:30:24.742Z,90.00
2022-10-08T00:31:24.846Z,90.11
2022-10-08T00:32:24.734Z,90.25
2022-10-08T00:33:24.713Z,90.31
2022-10-08T00:34:24.717Z,90.36
2022-10-08T00:35:24.785Z,90.36
2022-10-08T00:36:24.683Z,90.45
2022-10-08T00:37:24.671Z,90.45
2022-10-08T00:38:24.660Z,90.45
2022-10-08T00:39:24.660Z,90.45
2022-10-08T00:40:24.633Z,90.56
2022-10-08T00:41:24.788Z,90.66
2022-10-08T00:42:24.610Z,90.66
2022-10-08T00:43:26.106Z,90.66
2022-10-08T00:44:24.597Z,90.77
2022-10-08T00:45:24.632Z,90.77
2022-10-08T00:46:24.575Z,90.97
2022-10-08T00:47:24.579Z,90.97
2022-10-08T00:48:24.551Z,91.07
2022-10-08T00:49:24.543Z,91.07
2022-10-08T00:50:24.546Z,91.07
2022-10-08T00:51:24.520Z,91.17
2022-10-08T00:52:24.517Z,91.17
2022-10-08T00:53:24.507Z,91.27
2022-10-08T00:54:24.490Z,91.27
2022-10-08T00:55:24.493Z,91.38
2022-10-08T00:56:24.463Z,91.48
2022-10-08T00:57:24.449Z,91.48
2022-10-08T00:58:24.628Z,91.48
2022-10-08T00:59:24.433Z,91.48
2022-10-08T01:00:24.432Z,91.48
2022-10-08T01:01:24.525Z,91.38
2022-10-08T01:02:24.498Z,91.38
2022-10-08T01:03:24.398Z,91.38
2022-10-08T01:04:24.387Z,91.38
2022-10-08T01:05:24.382Z,91.38
2022-10-08T01:06:24.373Z,91.48
2022-10-08T01:07:24.358Z,91.48
2022-10-08T01:08:24.329Z,91.58
2022-10-08T01:09:24.339Z,91.58
2022-10-08T01:10:24.313Z,91.69
2022-10-08T01:11:24.326Z,91.69
2022-10-08T01:12:24.302Z,91.69
2022-10-08T01:13:24.294Z,91.78
2022-10-08T01:14:24.308Z,91.78
2022-10-08T01:15:24.263Z,91.93
2022-10-08T01:16:24.305Z,92.03
2022-10-08T01:17:24.245Z,92.03
2022-10-08T01:18:24.234Z,92.14
2022-10-08T01:19:24.312Z,92.14
2022-10-08T01:20:24.205Z,92.24
2022-10-08T01:21:24.211Z,92.24
2022-10-08T01:22:24.176Z,92.34
2022-10-08T01:23:24.184Z,92.44
2022-10-08T01:24:24.160Z,92.55
2022-10-08T01:25:24.145Z,92.65
2022-10-08T01:26:24.136Z,92.75
2022-10-08T01:27:24.121Z,92.75
2022-10-08T01:28:24.194Z,92.96
2022-10-08T01:29:24.122Z,92.96
2022-10-08T01:30:24.098Z,93.06
2022-10-08T01:31:24.181Z,93.16
2022-10-08T01:32:24.069Z,93.26
2022-10-08T01:33:24.063Z,93.26
2022-10-08T01:34:24.143Z,93.37
2022-10-08T01:35:24.049Z,93.37
2022-10-08T01:36:24.034Z,93.47
2022-10-08T01:37:24.015Z,93.47
2022-10-08T01:38:24.034Z,93.57
2022-10-08T01:39:24.002Z,93.57
2022-10-08T01:40:24.009Z,93.57
2022-10-08T01:41:23.971Z,93.57
2022-10-08T01:42:23.959Z,93.67
2022-10-08T01:43:23.944Z,93.67
2022-10-08T01:44:23.939Z,93.77
2022-10-08T01:45:24.027Z,93.88
2022-10-08T01:46:23.939Z,93.98
2022-10-08T01:47:23.908Z,94.08
2022-10-08T01:48:23.905Z,94.18
2022-10-08T01:49:23.884Z,94.18
2022-10-08T01:50:23.874Z,94.29
2022-10-08T01:51:23.876Z,94.39
2022-10-08T01:52:23.870Z,94.49
2022-10-08T01:53:23.839Z,94.49
2022-10-08T01:54:23.845Z,94.59
2022-10-08T01:55:23.820Z,94.70
2022-10-08T01:56:23.811Z,94.70
2022-10-08T01:57:23.822Z,94.80
2022-10-08T01:58:23.789Z,94.80
2022-10-08T01:59:23.807Z,94.80
2022-10-08T02:00:23.762Z,94.80
2022-10-08T02:01:23.791Z,94.80
2022-10-08T02:02:23.803Z,94.90
2022-10-08T02:03:23.738Z,95.00
2022-10-08T02:04:23.722Z,95.00
2022-10-08T02:05:23.723Z,95.00
2022-10-08T02:06:23.704Z,95.00
2022-10-08T02:07:23.698Z,95.10
2022-10-08T02:08:23.672Z,95.10
2022-10-08T02:09:23.661Z,95.10
2022-10-08T02:10:23.659Z,95.21
2022-10-08T02:11:23.650Z,95.17
2022-10-08T02:12:23.715Z,95.21
2022-10-08T02:13:23.628Z,95.17
2022-10-08T02:14:23.605Z,95.06
2022-10-08T02:15:23.618Z,95.06
2022-10-08T02:16:23.679Z,95.06
2022-10-08T02:17:23.602Z,95.06
2022-10-08T02:18:23.591Z,95.06
2022-10-08T02:19:23.568Z,95.17
2022-10-08T02:20:23.577Z,95.17
2022-10-08T02:21:23.542Z,95.17
2022-10-08T02:22:23.530Z,95.26
2022-10-08T02:23:23.517Z,95.26
2022-10-08T02:24:23.504Z,95.26
2022-10-08T02:25:23.500Z,95.26
2022-10-08T02:26:23.513Z,95.37
2022-10-08T02:27:23.471Z,95.37
2022-10-08T02:28:23.538Z,95.37
2022-10-08T02:29:23.451Z,95.37
2022-10-08T02:30:23.440Z,95.37
2022-10-08T02:31:23.483Z,95.37
2022-10-08T02:32:23.433Z,95.37
2022-10-08T02:33:23.475Z,95.37
2022-10-08T02:34:23.401Z,95.47
2022-10-08T02:35:23.390Z,95.47
2022-10-08T02:36:23.386Z,95.47
2022-10-08T02:37:23.378Z,95.57
2022-10-08T02:38:23.361Z,95.67
2022-10-08T02:39:23.344Z,95.67
2022-10-08T02:40:23.321Z,95.67
2022-10-08T02:41:23.325Z,95.67
2022-10-08T02:42:23.316Z,95.67
2022-10-08T02:43:23.304Z,95.67
2022-10-08T02:44:23.290Z,95.67
2022-10-08T02:45:23.281Z,95.78
2022-10-08T02:46:23.377Z,95.78
2022-10-08T02:47:23.272Z,95.78
2022-10-08T02:48:23.236Z,95.78
2022-10-08T02:49:23.245Z,95.88
2022-10-08T02:50:23.230Z,95.88
2022-10-08T02:51:23.213Z,95.98
2022-10-08T02:52:23.202Z,95.98
2022-10-08T02:53:23.184Z,96.08
2022-10-08T02:54:23.170Z,96.08
2022-10-08T02:55:23.165Z,96.19
2022-10-08T02:56:23.152Z,96.19
2022-10-08T02:57:23.156Z,96.19
2022-10-08T02:58:23.128Z,96.29
2022-10-08T02:59:23.132Z,96.29
2022-10-08T03:00:23.108Z,96.29
2022-10-08T03:01:23.164Z,96.29
2022-10-08T03:02:23.158Z,96.29
2022-10-08T03:03:23.224Z,96.39
2022-10-08T03:04:23.069Z,96.39
2022-10-08T03:05:23.059Z,96.39
2022-10-08T03:06:23.045Z,96.39
2022-10-08T03:07:23.044Z,96.39
2022-10-08T03:08:23.048Z,96.39
2022-10-08T03:09:23.024Z,96.39
2022-10-08T03:10:23.019Z,96.39
2022-10-08T03:11:22.991Z,96.49
2022-10-08T03:12:22.981Z,96.49
2022-10-08T03:13:22.980Z,96.49
2022-10-08T03:14:22.961Z,96.49
2022-10-08T03:15:22.954Z,96.49
2022-10-08T03:16:22.980Z,96.49
2022-10-08T03:17:22.926Z,96.49
2022-10-08T03:18:23.067Z,96.49
2022-10-08T03:19:22.911Z,96.49
2022-10-08T03:20:22.895Z,96.49
2022-10-08T03:21:22.881Z,96.49
2022-10-08T03:22:22.862Z,96.49
2022-10-08T03:23:22.856Z,96.59
2022-10-08T03:24:22.858Z,96.59
2022-10-08T03:25:22.848Z,96.59
2022-10-08T03:26:22.822Z,96.70
2022-10-08T03:27:22.822Z,96.70
2022-10-08T03:28:22.836Z,96.70
2022-10-08T03:29:22.815Z,96.70
2022-10-08T03:30:22.788Z,96.70
2022-10-08T03:31:22.786Z,96.70
2022-10-08T03:32:22.769Z,96.70
2022-10-08T03:33:22.757Z,96.70
2022-10-08T03:34:22.734Z,96.70
2022-10-08T03:35:22.747Z,96.80
2022-10-08T03:36:22.715Z,96.80
2022-10-08T03:37:22.720Z,96.80
2022-10-08T03:38:22.695Z,96.80
2022-10-08T03:39:22.684Z,96.80
2022-10-08T03:40:22.688Z,96.80
2022-10-08T03:41:22.659Z,96.80
2022-10-08T03:42:22.675Z,96.80
2022-10-08T03:43:22.646Z,96.80
2022-10-08T03:44:22.629Z,96.80
2022-10-08T03:45:22.635Z,96.80
2022-10-08T03:46:22.881Z,96.75
2022-10-08T03:47:22.626Z,96.75
2022-10-08T03:48:22.822Z,96.75
2022-10-08T03:49:22.592Z,96.75
2022-10-08T03:50:22.585Z,96.75
2022-10-08T03:51:22.580Z,96.75
2022-10-08T03:52:22.555Z,96.75
2022-10-08T03:53:22.533Z,96.75
2022-10-08T03:54:22.521Z,96.75
2022-10-08T03:55:22.637Z,96.75
2022-10-08T03:56:22.508Z,96.75
2022-10-08T03:57:22.506Z,96.75
2022-10-08T03:58:22.497Z,96.75
2022-10-08T03:59:22.477Z,96.75
2022-10-08T04:00:22.485Z,96.75
2022-10-08T04:01:22.668Z,96.75
2022-10-08T04:02:22.494Z,96.75
2022-10-08T04:03:22.425Z,96.75
2022-10-08T04:04:25.587Z,96.75
2022-10-08T04:05:22.414Z,96.66
2022-10-08T04:06:22.402Z,96.66
2022-10-08T04:07:22.389Z,96.66
2022-10-08T04:08:22.371Z,96.66
2022-10-08T04:09:22.361Z,96.55
2022-10-08T04:10:22.363Z,96.55
2022-10-08T04:11:22.360Z,96.51
2022-10-08T04:12:22.341Z,96.45
2022-10-08T04:13:22.326Z,96.30
2022-10-08T04:14:22.309Z,96.30
2022-10-08T04:15:22.302Z,96.30
2022-10-08T04:16:22.293Z,96.20
2022-10-08T04:17:22.291Z,96.20
2022-10-08T04:18:22.272Z,96.10
2022-10-08T04:19:22.259Z,96.10
2022-10-08T04:20:22.245Z,96.10
2022-10-08T04:21:22.316Z,96.14
2022-10-08T04:22:22.237Z,96.14
2022-10-08T04:23:22.223Z,96.14
2022-10-08T04:24:22.208Z,96.14
2022-10-08T04:25:22.194Z,96.14
2022-10-08T04:26:22.264Z,96.14
2022-10-08T04:27:22.184Z,96.14
2022-10-08T04:28:22.225Z,96.14
2022-10-08T04:29:22.177Z,96.14
2022-10-08T04:30:22.162Z,96.25
2022-10-08T04:31:22.220Z,96.25
2022-10-08T04:32:22.158Z,96.25
2022-10-08T04:33:22.107Z,96.25
2022-10-08T04:34:22.091Z,96.25
2022-10-08T04:35:22.083Z,96.14
2022-10-08T04:36:22.072Z,96.14
2022-10-08T04:37:22.063Z,96.14
2022-10-08T04:38:22.063Z,96.04
2022-10-08T04:39:22.039Z,96.04
2022-10-08T04:40:22.030Z,96.04
2022-10-08T04:41:22.027Z,96.04
2022-10-08T04:42:22.002Z,95.94
2022-10-08T04:43:22.079Z,95.94
2022-10-08T04:44:21.979Z,95.84
2022-10-08T04:45:21.975Z,95.84
2022-10-08T04:46:22.048Z,95.84
2022-10-08T04:47:21.954Z,95.73
2022-10-08T04:48:21.948Z,95.73
2022-10-08T04:49:21.939Z,95.73
2022-10-08T04:50:21.917Z,95.73
2022-10-08T04:51:21.911Z,95.63
2022-10-08T04:52:21.895Z,95.63
2022-10-08T04:53:21.892Z,95.53
2022-10-08T04:54:21.887Z,95.53
2022-10-08T04:55:21.869Z,95.53
2022-10-08T04:56:21.856Z,95.53
2022-10-08T04:57:21.849Z,95.53
2022-10-08T04:58:21.907Z,95.53
2022-10-08T04:59:21.856Z,95.43
2022-10-08T05:00:21.817Z,95.43
2022-10-08T05:01:21.851Z,95.43
2022-10-08T05:02:21.830Z,95.43
2022-10-08T05:03:21.784Z,95.32
2022-10-08T05:04:21.765Z,95.32
2022-10-08T05:05:21.773Z,95.32
2022-10-08T05:06:21.755Z,95.32
2022-10-08T05:07:21.747Z,95.32
2022-10-08T05:08:21.730Z,95.32
2022-10-08T05:09:21.722Z,95.32
2022-10-08T05:10:21.741Z,95.43
2022-10-08T05:11:21.709Z,95.43
2022-10-08T05:12:21.682Z,95.53
2022-10-08T05:13:21.688Z,95.53
2022-10-08T05:14:21.833Z,95.53
2022-10-08T05:15:21.651Z,95.53
2022-10-08T05:16:21.792Z,95.53
2022-10-08T05:17:21.633Z,95.67
2022-10-08T05:18:21.620Z,95.73
2022-10-08T05:19:21.619Z,95.78
2022-10-08T05:20:21.601Z,95.78
2022-10-08T05:21:21.603Z,95.78
2022-10-08T05:22:21.717Z,95.78
2022-10-08T05:23:21.624Z,95.78
2022-10-08T05:24:21.557Z,95.88
2022-10-08T05:25:21.676Z,95.88
2022-10-08T05:26:28.734Z,95.98
2022-10-08T05:27:21.532Z,95.98
2022-10-08T05:28:21.592Z,96.08
2022-10-08T05:29:21.513Z,96.08
2022-10-08T05:30:22.185Z,96.19
2022-10-08T05:31:21.596Z,96.29
2022-10-08T05:32:21.493Z,96.29
2022-10-08T05:33:21.462Z,96.29
2022-10-08T05:34:21.459Z,96.39
2022-10-08T05:35:21.451Z,96.39
2022-10-08T05:36:21.525Z,96.39
2022-10-08T05:37:21.432Z,96.39
2022-10-08T05:38:21.422Z,96.39
2022-10-08T05:39:21.404Z,96.39
2022-10-08T05:40:21.382Z,96.39
2022-10-08T05:41:21.413Z,96.39
2022-10-08T05:42:21.383Z,96.39
2022-10-08T05:43:21.381Z,96.34
2022-10-08T05:44:21.363Z,96.34
2022-10-08T05:45:21.346Z,96.25
2022-10-08T05:46:21.409Z,96.25
2022-10-08T05:47:21.319Z,96.25
2022-10-08T05:48:21.304Z,96.25
2022-10-08T05:49:21.300Z,96.25
2022-10-08T05:50:21.284Z,96.25
2022-10-08T05:51:21.278Z,96.25
2022-10-08T05:52:21.255Z,96.25
2022-10-08T05:53:21.261Z,96.14
2022-10-08T05:54:21.247Z,96.14
2022-10-08T05:55:21.232Z,96.04
2022-10-08T05:56:21.211Z,96.04
2022-10-08T05:57:21.212Z,96.04
2022-10-08T05:58:21.194Z,96.04
2022-10-08T05:59:21.181Z,96.04
2022-10-08T06:00:21.176Z,96.04
2022-10-08T06:01:21.160Z,96.04
2022-10-08T06:02:21.226Z,96.04
2022-10-08T06:03:21.144Z,96.04
2022-10-08T06:04:21.167Z,96.04
2022-10-08T06:05:21.137Z,96.04
2022-10-08T06:06:21.107Z,96.04
2022-10-08T06:07:21.095Z,96.04
2022-10-08T06:08:21.084Z,96.04
2022-10-08T06:09:21.078Z,96.04
2022-10-08T06:10:21.077Z,96.04
2022-10-08T06:11:21.056Z,96.04
2022-10-08T06:12:21.064Z,96.04
2022-10-08T06:13:21.029Z,96.04
2022-10-08T06:14:21.019Z,95.94
2022-10-08T06:15:21.017Z,96.04
2022-10-08T06:16:21.165Z,95.94
2022-10-08T06:17:21.002Z,95.94
2022-10-08T06:18:20.977Z,95.94
2022-10-08T06:19:20.978Z,95.84
2022-10-08T06:20:20.959Z,95.84
2022-10-08T06:21:20.955Z,95.84
2022-10-08T06:22:20.961Z,95.73
2022-10-08T06:23:20.922Z,95.73
2022-10-08T06:24:20.918Z,95.63
2022-10-08T06:25:20.904Z,95.63
2022-10-08T06:26:20.896Z,95.63
2022-10-08T06:27:20.899Z,95.63
2022-10-08T06:28:20.922Z,95.63
2022-10-08T06:29:20.860Z,95.63
2022-10-08T06:30:20.856Z,95.63
2022-10-08T06:31:20.894Z,95.63
2022-10-08T06:32:20.832Z,95.63
2022-10-08T06:33:20.836Z,95.63
2022-10-08T06:34:20.816Z,95.63
2022-10-08T06:35:20.811Z,95.63
2022-10-08T06:36:20.797Z,95.73
2022-10-08T06:37:20.787Z,95.73
2022-10-08T06:38:20.776Z,95.73
2022-10-08T06:39:20.759Z,95.73
2022-10-08T06:40:20.748Z,95.73
2022-10-08T06:41:20.731Z,95.84
2022-10-08T06:42:20.727Z,95.84
2022-10-08T06:43:20.720Z,95.84
2022-10-08T06:44:20.710Z,95.84
2022-10-08T06:45:20.693Z,95.94
2022-10-08T06:46:20.721Z,95.94
2022-10-08T06:47:20.668Z,95.94
2022-10-08T06:48:20.681Z,95.94
2022-10-08T06:49:20.652Z,96.04
2022-10-08T06:50:20.644Z,96.04
2022-10-08T06:51:20.627Z,96.04
2022-10-08T06:52:20.622Z,96.14
2022-10-08T06:53:20.603Z,96.14
2022-10-08T06:54:20.606Z,96.25
2022-10-08T06:55:20.581Z,96.25
2022-10-08T06:56:20.579Z,96.34
2022-10-08T06:57:20.561Z,96.34
2022-10-08T06:58:20.557Z,96.45
2022-10-08T06:59:20.544Z,96.45
2022-10-08T07:00:20.545Z,96.55
2022-10-08T07:01:20.581Z,96.55
2022-10-08T07:02:20.546Z,96.66
2022-10-08T07:03:20.496Z,96.66
2022-10-08T07:04:20.497Z,96.66
2022-10-08T07:05:20.482Z,96.55
2022-10-08T07:06:20.474Z,96.55
2022-10-08T07:07:20.460Z,96.66
2022-10-08T07:08:20.448Z,96.66
2022-10-08T07:09:20.425Z,96.66
2022-10-08T07:10:20.438Z,96.66
2022-10-08T07:11:20.421Z,96.61
2022-10-08T07:12:20.404Z,96.61
2022-10-08T07:13:20.385Z,96.61
2022-10-08T07:14:20.381Z,96.51
2022-10-08T07:15:20.370Z,96.51
2022-10-08T07:16:21.380Z,96.51
2022-10-08T07:17:20.352Z,96.41
2022-10-08T07:18:20.339Z,96.41
2022-10-08T07:19:20.341Z,96.41
2022-10-08T07:20:20.319Z,96.41
2022-10-08T07:21:20.317Z,96.30
2022-10-08T07:22:20.310Z,96.30
2022-10-08T07:23:20.275Z,96.30
2022-10-08T07:24:20.274Z,96.30
2022-10-08T07:25:20.261Z,96.30
2022-10-08T07:26:20.258Z,96.30
2022-10-08T07:27:20.252Z,96.20
2022-10-08T07:28:20.315Z,96.15
2022-10-08T07:29:20.220Z,96.15
2022-10-08T07:30:20.210Z,96.05
2022-10-08T07:31:20.283Z,96.05
2022-10-08T07:32:20.201Z,95.95
2022-10-08T07:33:20.177Z,95.85
2022-10-08T07:34:20.166Z,95.75
2022-10-08T07:35:20.169Z,95.60
2022-10-08T07:36:20.145Z,95.60
2022-10-08T07:37:20.171Z,95.39
2022-10-08T07:38:20.146Z,95.19
2022-10-08T07:39:20.251Z,94.89
2022-10-08T07:40:20.133Z,94.78
2022-10-08T07:41:20.089Z,94.74
2022-10-08T07:42:20.081Z,94.53
2022-10-08T07:43:20.076Z,94.43
2022-10-08T07:44:20.094Z,93.92
2022-10-08T07:45:20.037Z,93.71
2022-10-08T07:46:20.029Z,93.37
2022-10-08T07:47:20.016Z,93.16
2022-10-08T07:48:20.027Z,92.86
2022-10-08T07:49:20.017Z,92.45
2022-10-08T07:50:19.990Z,92.45
2022-10-08T07:51:19.986Z,92.30
2022-10-08T07:52:19.966Z,92.10
2022-10-08T07:53:19.950Z,91.79
2022-10-08T07:54:19.963Z,91.39
2022-10-08T07:55:19.929Z,91.08
2022-10-08T07:56:19.919Z,90.77
2022-10-08T07:57:19.912Z,90.42
2022-10-08T07:58:19.897Z,90.32
2022-10-08T07:59:19.925Z,90.32
2022-10-08T08:00:25.233Z,90.32
2022-10-08T08:01:19.930Z,90.08
2022-10-08T08:02:19.916Z,89.36
2022-10-08T08:03:19.850Z,88.85
2022-10-08T08:04:19.851Z,88.65
2022-10-08T08:05:19.839Z,88.51
2022-10-08T08:06:19.823Z,88.51
2022-10-08T08:07:19.804Z,88.00
2022-10-08T08:08:19.797Z,87.59
2022-10-08T08:09:19.782Z,87.69
2022-10-08T08:10:19.783Z,87.65
2022-10-08T08:11:19.757Z,87.45
2022-10-08T08:12:19.752Z,87.35
2022-10-08T08:13:19.741Z,87.04
2022-10-08T08:14:19.758Z,87.04
2022-10-08T08:15:19.762Z,86.74
2022-10-08T08:16:19.809Z,86.53
2022-10-08T08:17:19.699Z,86.08
2022-10-08T08:18:19.692Z,85.68
2022-10-08T08:19:19.669Z,85.58
2022-10-08T08:20:19.669Z,85.27
2022-10-08T08:21:19.654Z,84.62
2022-10-08T08:22:19.653Z,84.52
2022-10-08T08:23:19.633Z,84.11
2022-10-08T08:24:19.617Z,83.60
2022-10-08T08:25:19.602Z,83.67
2022-10-08T08:26:19.602Z,83.56
2022-10-08T08:27:19.631Z,83.56
2022-10-08T08:28:19.625Z,83.06
2022-10-08T08:29:19.572Z,82.65
2022-10-08T08:30:19.557Z,82.45
2022-10-08T08:31:19.586Z,81.79
2022-10-08T08:32:19.542Z,81.70
2022-10-08T08:33:19.521Z,81.39
2022-10-08T08:34:19.531Z,81.09
2022-10-08T08:35:19.502Z,81.25
2022-10-08T08:36:19.491Z,80.94
2022-10-08T08:37:19.502Z,80.74
2022-10-08T08:38:19.479Z,80.54
2022-10-08T08:39:19.456Z,80.44
2022-10-08T08:40:19.449Z,80.03
2022-10-08T08:41:20.690Z,79.90
2022-10-08T08:42:19.439Z,79.90
2022-10-08T08:43:19.412Z,79.79
2022-10-08T08:44:19.410Z,79.79
2022-10-08T08:45:44.651Z,79.79
2022-10-08T08:46:19.504Z,79.75
2022-10-08T08:47:19.380Z,79.45
2022-10-08T08:48:19.357Z,79.14
2022-10-08T08:49:19.345Z,79.04
2022-10-08T08:50:19.346Z,78.84
2022-10-08T08:51:19.324Z,78.70
2022-10-08T08:52:19.356Z,78.50
2022-10-08T08:53:19.299Z,78.50
2022-10-08T08:54:19.297Z,78.60
2022-10-08T08:55:19.288Z,78.30
2022-10-08T08:56:19.268Z,77.99
2022-10-08T08:57:19.262Z,77.65
2022-10-08T08:58:19.267Z,77.45
2022-10-08T08:59:19.238Z,77.55
2022-10-08T09:00:19.250Z,77.45
2022-10-08T09:01:19.280Z,77.14
2022-10-08T09:02:19.205Z,77.25
2022-10-08T09:03:19.200Z,77.14
2022-10-08T09:04:19.200Z,77.25
2022-10-08T09:05:19.231Z,77.04
2022-10-08T09:06:19.172Z,77.25
2022-10-08T09:07:19.146Z,77.25
2022-10-08T09:08:19.155Z,77.04
2022-10-08T09:09:19.126Z,77.25
2022-10-08T09:10:19.122Z,77.34
2022-10-08T09:11:19.106Z,77.45
2022-10-08T09:12:20.929Z,77.04
2022-10-08T09:13:19.101Z,77.14
2022-10-08T09:14:19.105Z,77.25
2022-10-08T09:15:19.085Z,76.90
2022-10-08T09:16:19.102Z,76.80
2022-10-08T09:17:19.035Z,76.80
2022-10-08T09:18:19.044Z,76.80
2022-10-08T09:19:19.022Z,76.90
2022-10-08T09:20:19.038Z,76.60
2022-10-08T09:21:18.997Z,76.26
2022-10-08T09:22:18.986Z,76.16
2022-10-08T09:23:18.991Z,76.16
2022-10-08T09:24:18.967Z,76.16
2022-10-08T09:25:18.958Z,75.96
2022-10-08T09:26:18.959Z,75.65
2022-10-08T09:27:18.935Z,75.76
2022-10-08T09:28:18.989Z,75.85
2022-10-08T09:29:18.924Z,76.06
2022-10-08T09:30:18.910Z,75.65
2022-10-08T09:31:18.941Z,75.65
2022-10-08T09:32:18.879Z,75.55
2022-10-08T09:33:18.899Z,75.52
2022-10-08T09:34:18.913Z,75.42
2022-10-08T09:35:18.857Z,75.62
2022-10-08T09:36:18.849Z,75.31
2022-10-08T09:37:18.826Z,75.11
2022-10-08T09:38:18.811Z,75.31
2022-10-08T09:39:18.800Z,75.21
2022-10-08T09:40:18.796Z,75.11
2022-10-08T09:41:18.795Z,75.01
2022-10-08T09:42:18.783Z,75.11
2022-10-08T09:43:18.754Z,75.11
2022-10-08T09:44:18.752Z,75.42
2022-10-08T09:45:22.085Z,75.01
2022-10-08T09:46:18.810Z,74.98
2022-10-08T09:47:18.728Z,74.87
2022-10-08T09:48:18.703Z,74.87
2022-10-08T09:49:18.686Z,74.87
2022-10-08T09:50:18.681Z,74.77
2022-10-08T09:51:18.667Z,74.98
2022-10-08T09:52:18.673Z,75.11
2022-10-08T09:53:18.649Z,75.21
2022-10-08T09:54:18.642Z,75.31
2022-10-08T09:55:18.624Z,75.52
2022-10-08T09:56:18.642Z,75.62
2022-10-08T09:57:18.617Z,75.48
2022-10-08T09:58:18.595Z,75.38
2022-10-08T09:59:18.586Z,75.18
2022-10-08T10:00:18.685Z,75.38
2022-10-08T10:01:18.593Z,75.48
2022-10-08T10:02:18.575Z,75.48
2022-10-08T10:03:18.533Z,75.28
2022-10-08T10:04:18.628Z,75.48
2022-10-08T10:05:18.517Z,75.18
2022-10-08T10:06:21.198Z,75.07
2022-10-08T10:07:18.499Z,75.18
2022-10-08T10:08:18.487Z,75.18
2022-10-08T10:09:18.471Z,75.04
2022-10-08T10:10:18.464Z,74.84
2022-10-08T10:11:18.463Z,75.04
2022-10-08T10:12:18.483Z,74.54
2022-10-08T10:13:18.428Z,74.23
2022-10-08T10:14:18.424Z,74.03
2022-10-08T10:15:18.412Z,74.43
2022-10-08T10:16:18.428Z,74.54
2022-10-08T10:17:18.396Z,74.54
2022-10-08T10:18:18.392Z,74.43
2022-10-08T10:19:18.370Z,73.83
2022-10-08T10:20:18.446Z,73.72
2022-10-08T10:21:18.345Z,73.83
2022-10-08T10:22:18.344Z,74.03
2022-10-08T10:23:18.333Z,74.03
2022-10-08T10:24:18.323Z,74.16
2022-10-08T10:25:18.304Z,74.27
2022-10-08T10:26:18.291Z,74.37
2022-10-08T10:27:18.279Z,74.23
2022-10-08T10:28:18.345Z,74.03
2022-10-08T10:29:18.260Z,74.03
2022-10-08T10:30:18.297Z,73.93
2022-10-08T10:31:18.313Z,74.03
2022-10-08T10:32:21.095Z,74.03
2022-10-08T10:33:18.240Z,73.93
2022-10-08T10:34:18.229Z,73.93
2022-10-08T10:35:18.198Z,74.03
2022-10-08T10:36:18.191Z,74.03
2022-10-08T10:37:18.174Z,73.96
2022-10-08T10:38:18.167Z,74.07
2022-10-08T10:39:18.167Z,74.07
2022-10-08T10:40:18.144Z,74.87
2022-10-08T10:41:18.137Z,74.87
2022-10-08T10:42:18.121Z,74.98
2022-10-08T10:43:18.123Z,75.24
2022-10-08T10:44:18.125Z,74.74
2022-10-08T10:45:18.131Z,74.74
2022-10-08T10:46:18.141Z,74.74
2022-10-08T10:47:18.066Z,74.94
2022-10-08T10:48:18.064Z,75.14
2022-10-08T10:49:18.077Z,74.54
2022-10-08T10:50:18.043Z,74.33
2022-10-08T10:51:18.023Z,74.57
2022-10-08T10:52:18.013Z,74.77
2022-10-08T10:53:18.032Z,74.77
2022-10-08T10:54:17.988Z,74.98
2022-10-08T10:55:18.007Z,74.98
2022-10-08T10:56:17.969Z,74.87
2022-10-08T10:57:17.963Z,74.87
2022-10-08T10:58:17.951Z,74.87
2022-10-08T10:59:17.938Z,75.01
2022-10-08T11:00:17.938Z,75.21
2022-10-08T11:01:17.959Z,75.42
2022-10-08T11:02:18.006Z,75.62
2022-10-08T11:03:17.898Z,75.72
2022-10-08T11:04:17.896Z,75.72
2022-10-08T11:05:17.893Z,75.72
2022-10-08T11:06:17.875Z,75.92
2022-10-08T11:07:17.853Z,76.03
2022-10-08T11:08:17.856Z,76.12
2022-10-08T11:09:17.851Z,76.12
2022-10-08T11:10:17.825Z,76.03
2022-10-08T11:11:17.830Z,75.92
2022-10-08T11:12:17.807Z,75.92
2022-10-08T11:13:17.788Z,75.92
2022-10-08T11:14:17.777Z,76.23
2022-10-08T11:15:17.783Z,76.23
2022-10-08T11:16:17.900Z,76.53
2022-10-08T11:17:21.886Z,76.43
2022-10-08T11:18:17.726Z,76.46
2022-10-08T11:19:17.756Z,76.67
2022-10-08T11:20:17.707Z,76.67
2022-10-08T11:21:17.715Z,76.67
2022-10-08T11:22:17.708Z,76.77
2022-10-08T11:23:17.693Z,76.87
2022-10-08T11:24:17.661Z,76.97
2022-10-08T11:25:17.699Z,77.07
2022-10-08T11:26:22.861Z,77.21
2022-10-08T11:27:17.661Z,77.41
2022-10-08T11:28:17.716Z,77.41
2022-10-08T11:29:17.781Z,77.61
2022-10-08T11:30:17.599Z,77.82
2022-10-08T11:31:17.733Z,78.02
2022-10-08T11:32:17.591Z,78.33
2022-10-08T11:33:17.572Z,78.53
2022-10-08T11:34:17.571Z,78.93
2022-10-08T11:35:17.542Z,79.54
2022-10-08T11:36:17.558Z,79.85
2022-10-08T11:37:17.524Z,80.35
2022-10-08T11:38:17.512Z,81.40
2022-10-08T11:39:17.637Z,82.31
2022-10-08T11:40:17.491Z,83.53
2022-10-08T11:41:17.497Z,83.77
2022-10-08T11:42:17.469Z,84.58
2022-10-08T11:43:17.462Z,84.78
2022-10-08T11:44:17.457Z,85.19
2022-10-08T11:45:17.479Z,85.39
2022-10-08T11:46:17.486Z,85.90
2022-10-08T11:47:17.423Z,86.76
2022-10-08T11:48:17.402Z,87.16
2022-10-08T11:49:17.402Z,87.57
2022-10-08T11:50:17.411Z,87.97
2022-10-08T11:51:17.367Z,88.18
2022-10-08T11:52:17.359Z,88.32
2022-10-08T11:53:17.351Z,88.73
2022-10-08T11:54:17.338Z,88.73
2022-10-08T11:55:17.357Z,88.73
2022-10-08T11:56:17.350Z,88.93
2022-10-08T11:57:17.341Z,88.62
2022-10-08T11:58:17.291Z,89.03
2022-10-08T11:59:17.292Z,88.73
2022-10-08T12:00:17.272Z,88.73
2022-10-08T12:01:17.277Z,89.13
2022-10-08T12:02:17.432Z,89.13
2022-10-08T12:03:17.348Z,89.03
2022-10-08T12:04:17.241Z,88.89
2022-10-08T12:05:17.224Z,88.99
2022-10-08T12:06:17.221Z,88.68
2022-10-08T12:07:17.207Z,88.28
2022-10-08T12:08:17.190Z,88.28
2022-10-08T12:09:17.177Z,87.87
2022-10-08T12:10:17.174Z,87.93
2022-10-08T12:11:17.157Z,88.13
2022-10-08T12:12:17.149Z,88.23
2022-10-08T12:13:18.028Z,88.20
2022-10-08T12:14:17.138Z,87.89
2022-10-08T12:15:17.122Z,87.48
2022-10-08T12:16:17.152Z,87.48
2022-10-08T12:17:17.118Z,87.38
2022-10-08T12:18:17.086Z,86.16
2022-10-08T12:19:17.118Z,85.96
2022-10-08T12:20:17.067Z,86.27
2022-10-08T12:21:17.049Z,86.27
2022-10-08T12:22:17.045Z,85.76
2022-10-08T12:23:17.032Z,85.66
2022-10-08T12:24:17.015Z,85.82
2022-10-08T12:25:17.002Z,85.42
2022-10-08T12:26:17.002Z,85.42
2022-10-08T12:27:16.997Z,85.21
2022-10-08T12:28:17.017Z,85.27
2022-10-08T12:29:16.962Z,84.06
2022-10-08T12:30:16.958Z,83.76
2022-10-08T12:31:17.052Z,82.84
2022-10-08T12:32:16.935Z,82.44
2022-10-08T12:33:16.909Z,82.40
2022-10-08T12:34:16.922Z,81.79
2022-10-08T12:35:16.887Z,81.90
2022-10-08T12:36:16.889Z,81.79
2022-10-08T12:37:16.896Z,81.99
2022-10-08T12:38:16.869Z,81.99
2022-10-08T12:39:16.882Z,81.79
2022-10-08T12:40:16.841Z,81.59
2022-10-08T12:41:16.838Z,80.07
2022-10-08T12:42:16.823Z,80.47
2022-10-08T12:43:16.807Z,80.68
2022-10-08T12:44:16.798Z,80.58
2022-10-08T12:45:16.792Z,80.68
2022-10-08T12:46:16.831Z,80.58
2022-10-08T12:47:16.759Z,80.34
2022-10-08T12:48:16.750Z,80.04
2022-10-08T12:49:16.742Z,79.73
2022-10-08T12:50:16.755Z,78.92
2022-10-08T12:51:16.714Z,78.52
2022-10-08T12:52:16.714Z,78.82